首页
METAR-TAF:

METAR-TAF

机场 :

因戈尔施塔特, 德国

纬度: 48-43N, 经度: 011-32E, 海拔: 367米

当前天气观测

该预报发布于25分钟前的05:20 UTC
静风
温度 -1°C
湿度 93%
气压 1016 hPa
能见度10公里或以上
少量云层高于15000英尺
散云层高于25000英尺

METAR: ETSI 190520Z 00000KT 9999 FEW150 SCT250 M01/M02 Q1016 BLU+BLU+

时间: 06:45 (05:45 UTC)

预报

该预报发布于31分钟前的05:14 UTC
预报有效从19日的 06点(UTC)到 19日的 15点(UTC)
风速7节,风向东转东北
能见度10公里或以上
散云层高于15000英尺
多云层高于25000英尺

TAF: ETSI 190514Z 1906/1915 06007KT 9999 NSW SCT150 BKN250

超过4000个机场的气象观测和天气预报(METAR&TAF报告)。

可查询的气象台以黄色和红色小点在地图上表示。

将鼠标移到小点上方,可查看气象台名称。

然后点击查看天气观测和预报。

如需切换地图:点击带黑十字的绿色按钮放大地图;点击带横线的绿色按钮缩小地图;或者点击绿色箭头查看邻近地区的地图。


METAR-TAF: